createdAt,value
2019-03-23T00:00:45.152Z,72.78
2019-03-23T00:03:15.578Z,72.98
2019-03-23T00:05:46.077Z,73.34
2019-03-23T00:08:16.767Z,73.55
2019-03-23T00:10:47.286Z,73.44
2019-03-23T00:13:18.770Z,73.42
2019-03-23T00:15:49.462Z,72.97
2019-03-23T00:18:19.832Z,72.83
2019-03-23T00:20:50.249Z,72.74
2019-03-23T00:23:20.897Z,72.60
2019-03-23T00:25:51.291Z,72.56
2019-03-23T00:28:23.116Z,72.50
2019-03-23T00:30:53.760Z,72.65
2019-03-23T00:33:24.359Z,72.45
2019-03-23T00:35:55.227Z,72.27
2019-03-23T00:38:25.923Z,72.31
2019-03-23T00:40:56.318Z,72.27
2019-03-23T00:43:26.674Z,72.11
2019-03-23T00:45:58.160Z,72.03
2019-03-23T00:48:29.494Z,72.17
2019-03-23T00:51:00.146Z,72.10
2019-03-23T00:53:30.533Z,72.45
2019-03-23T00:56:00.991Z,72.70
2019-03-23T00:58:33.912Z,72.83
2019-03-23T01:01:05.695Z,72.84
2019-03-23T01:03:36.143Z,72.76
2019-03-23T01:06:08.195Z,72.73
2019-03-23T01:08:38.541Z,72.76
2019-03-23T01:11:08.907Z,72.82
2019-03-23T01:13:40.654Z,72.79
2019-03-23T01:16:11.302Z,72.74
2019-03-23T01:18:41.654Z,72.94
2019-03-23T01:21:12.527Z,73.08
2019-03-23T01:23:42.968Z,73.06
2019-03-23T01:26:13.502Z,73.10
2019-03-23T01:28:44.323Z,73.26
2019-03-23T01:31:15.095Z,73.24
2019-03-23T01:33:45.639Z,73.18
2019-03-23T01:36:16.215Z,73.20
2019-03-23T01:38:46.684Z,73.06
2019-03-23T01:41:17.167Z,72.80
2019-03-23T01:43:47.863Z,72.62
2019-03-23T01:46:18.312Z,72.76
2019-03-23T01:48:48.756Z,72.97
2019-03-23T01:51:19.551Z,72.83
2019-03-23T01:53:49.929Z,72.63
2019-03-23T01:56:20.299Z,72.92
2019-03-23T01:58:50.919Z,72.95
2019-03-23T02:01:21.419Z,72.96
2019-03-23T02:03:53.318Z,72.97
2019-03-23T02:06:23.713Z,72.96
2019-03-23T02:08:55.106Z,72.82
2019-03-23T02:11:25.768Z,72.62
2019-03-23T02:13:57.826Z,72.44
2019-03-23T02:16:28.420Z,72.37
2019-03-23T02:18:59.112Z,72.18
2019-03-23T02:21:29.465Z,72.04
2019-03-23T02:24:00.966Z,71.99
2019-03-23T02:26:31.305Z,71.87
2019-03-23T02:29:02.045Z,71.77
2019-03-23T02:31:32.354Z,71.66
2019-03-23T02:34:02.777Z,71.78
2019-03-23T02:36:33.286Z,71.68
2019-03-23T02:39:04.482Z,71.61
2019-03-23T02:41:35.993Z,71.52
2019-03-23T02:44:07.659Z,71.50
2019-03-23T02:46:39.128Z,71.60
2019-03-23T02:49:09.610Z,71.48
2019-03-23T02:51:40.430Z,71.39
2019-03-23T02:54:10.737Z,71.63
2019-03-23T02:56:41.164Z,71.50
2019-03-23T02:59:11.546Z,71.55
2019-03-23T03:01:42.550Z,71.56
2019-03-23T03:04:13.170Z,71.81
2019-03-23T03:06:43.614Z,71.95
2019-03-23T03:09:15.362Z,71.89
2019-03-23T03:11:45.814Z,71.86
2019-03-23T03:14:16.251Z,71.84
2019-03-23T03:16:46.923Z,71.83
2019-03-23T03:19:17.336Z,72.00
2019-03-23T03:21:48.129Z,72.16
2019-03-23T03:24:18.834Z,72.27
2019-03-23T03:26:49.560Z,72.20
2019-03-23T03:29:21.278Z,72.11
2019-03-23T03:31:52.091Z,72.15
2019-03-23T03:34:22.493Z,72.11
2019-03-23T03:36:53.912Z,72.04
2019-03-23T03:39:24.341Z,72.08
2019-03-23T03:41:54.803Z,72.17
2019-03-23T03:44:25.208Z,72.01
2019-03-23T03:46:55.632Z,71.88
2019-03-23T03:49:26.415Z,71.99
2019-03-23T03:51:56.957Z,72.11
2019-03-23T03:54:27.390Z,72.17
2019-03-23T03:56:58.156Z,72.11
2019-03-23T03:59:29.703Z,72.06
2019-03-23T04:02:00.442Z,71.95
2019-03-23T04:04:32.197Z,71.81
2019-03-23T04:07:02.622Z,71.67
2019-03-23T04:09:34.689Z,71.64
2019-03-23T04:12:06.271Z,71.82
2019-03-23T04:14:37.980Z,71.82
2019-03-23T04:17:08.983Z,71.67
2019-03-23T04:19:39.372Z,71.73
2019-03-23T04:22:09.805Z,72.01
2019-03-23T04:24:40.208Z,72.26
2019-03-23T04:27:11.950Z,72.26
2019-03-23T04:29:42.322Z,72.48
2019-03-23T04:32:13.054Z,72.02
2019-03-23T04:34:43.683Z,72.14
2019-03-23T04:37:15.319Z,72.14
2019-03-23T04:39:45.866Z,72.77
2019-03-23T04:42:16.219Z,72.77
2019-03-23T04:44:46.605Z,73.62
2019-03-23T04:47:18.294Z,73.78
2019-03-23T04:49:48.689Z,73.78
2019-03-23T04:52:19.146Z,73.80
2019-03-23T04:54:49.487Z,73.65
2019-03-23T04:57:20.125Z,73.65
2019-03-23T04:59:52.079Z,73.82
2019-03-23T05:02:23.980Z,73.71
2019-03-23T05:04:54.674Z,73.36
2019-03-23T05:07:26.631Z,73.36
2019-03-23T05:09:58.568Z,73.54
2019-03-23T05:12:30.168Z,73.38
2019-03-23T05:15:00.671Z,73.38
2019-03-23T05:17:31.408Z,73.56
2019-03-23T05:20:01.905Z,73.56
2019-03-23T05:22:32.442Z,73.78
2019-03-23T05:25:03.537Z,74.31
2019-03-23T05:27:34.538Z,74.16
2019-03-23T05:30:05.192Z,73.89
2019-03-23T05:32:35.873Z,73.89
2019-03-23T05:35:06.705Z,73.71
2019-03-23T05:37:37.160Z,73.60
2019-03-23T05:40:08.489Z,73.43
2019-03-23T05:42:38.852Z,73.25
2019-03-23T05:45:09.979Z,73.12
2019-03-23T05:47:41.669Z,73.13
2019-03-23T05:50:12.222Z,73.13
2019-03-23T05:52:42.665Z,73.12
2019-03-23T05:55:13.213Z,72.99
2019-03-23T05:57:43.567Z,72.83
2019-03-23T06:00:18.232Z,72.72
2019-03-23T06:02:48.630Z,72.60
2019-03-23T06:05:19.056Z,73.16
2019-03-23T06:07:54.378Z,72.81
2019-03-23T06:10:37.044Z,72.81
2019-03-23T06:13:14.869Z,72.69
2019-03-23T06:15:47.779Z,72.69
2019-03-23T06:18:22.845Z,72.71
2019-03-23T06:20:54.624Z,72.71
2019-03-23T06:23:26.913Z,72.33
2019-03-23T06:25:58.099Z,71.80
2019-03-23T06:28:28.758Z,71.73
2019-03-23T06:30:59.203Z,71.73
2019-03-23T06:33:30.505Z,71.73
2019-03-23T06:36:04.820Z,71.53
2019-03-23T06:38:36.264Z,71.23
2019-03-23T06:41:14.819Z,71.19
2019-03-23T06:43:45.600Z,71.19
2019-03-23T06:46:17.533Z,70.88
2019-03-23T06:48:48.507Z,70.84
2019-03-23T06:51:20.026Z,70.70
2019-03-23T06:53:51.677Z,70.45
2019-03-23T06:56:23.455Z,70.12
2019-03-23T06:58:55.748Z,69.77
2019-03-23T07:01:26.532Z,69.56
2019-03-23T07:03:56.931Z,69.21
2019-03-23T07:06:28.469Z,68.93
2019-03-23T07:08:59.180Z,68.68
2019-03-23T07:11:29.924Z,68.36
2019-03-23T07:14:00.995Z,67.98
2019-03-23T07:16:31.462Z,67.68
2019-03-23T07:19:01.840Z,67.27
2019-03-23T07:21:32.224Z,66.83
2019-03-23T07:24:03.166Z,66.46
2019-03-23T07:26:34.536Z,65.85
2019-03-23T07:29:06.321Z,65.42
2019-03-23T07:31:36.793Z,65.01
2019-03-23T07:34:07.146Z,64.74
2019-03-23T07:36:38.896Z,64.42
2019-03-23T07:39:09.634Z,64.10
2019-03-23T07:41:40.339Z,63.71
2019-03-23T07:44:12.611Z,63.33
2019-03-23T07:46:42.978Z,62.76
2019-03-23T07:49:13.686Z,62.37
2019-03-23T07:51:45.017Z,61.78
2019-03-23T07:54:15.766Z,61.49
2019-03-23T07:56:46.706Z,61.21
2019-03-23T07:59:17.565Z,60.90
2019-03-23T08:01:49.756Z,60.48
2019-03-23T08:04:21.025Z,60.10
2019-03-23T08:06:51.676Z,60.10
2019-03-23T08:09:23.616Z,59.98
2019-03-23T08:11:54.362Z,59.47
2019-03-23T08:14:26.110Z,59.06
2019-03-23T08:16:57.902Z,58.55
2019-03-23T08:19:29.834Z,57.89
2019-03-23T08:22:03.178Z,57.12
2019-03-23T08:24:34.137Z,56.14
2019-03-23T08:27:04.702Z,55.95
2019-03-23T08:29:35.293Z,54.92
2019-03-23T08:32:06.114Z,54.38
2019-03-23T08:34:37.804Z,54.10
2019-03-23T08:37:08.257Z,54.02
2019-03-23T08:39:48.102Z,54.47
2019-03-23T08:42:16.605Z,54.67
2019-03-23T08:44:47.798Z,55.54
2019-03-23T08:47:18.494Z,56.13
2019-03-23T08:49:49.220Z,55.77
2019-03-23T08:52:21.993Z,55.78
2019-03-23T08:54:52.774Z,55.36
2019-03-23T08:57:23.268Z,55.42
2019-03-23T08:59:55.033Z,55.87
2019-03-23T09:02:25.778Z,56.18
2019-03-23T09:04:57.912Z,56.26
2019-03-23T09:07:30.038Z,56.49
2019-03-23T09:10:00.926Z,56.59
2019-03-23T09:12:32.482Z,56.62
2019-03-23T09:15:04.910Z,56.18
2019-03-23T09:17:35.545Z,55.91
2019-03-23T09:20:07.377Z,55.95
2019-03-23T09:22:39.473Z,55.59
2019-03-23T09:25:10.645Z,55.22
2019-03-23T09:27:41.027Z,54.85
2019-03-23T09:30:12.434Z,54.86
2019-03-23T09:32:43.519Z,54.24
2019-03-23T09:35:14.502Z,52.79
2019-03-23T09:37:45.769Z,52.37
2019-03-23T09:40:16.516Z,52.15
2019-03-23T09:42:47.038Z,52.05
2019-03-23T09:45:18.115Z,51.83
2019-03-23T09:47:49.091Z,52.04
2019-03-23T09:50:20.245Z,51.64
2019-03-23T09:52:51.084Z,51.31
2019-03-23T09:55:21.840Z,50.94
2019-03-23T09:57:53.498Z,51.02
2019-03-23T10:00:24.062Z,49.76
2019-03-23T10:02:55.397Z,49.31
2019-03-23T10:05:26.195Z,50.83
2019-03-23T10:07:58.113Z,51.67
2019-03-23T10:10:29.465Z,51.87
2019-03-23T10:13:01.011Z,51.68
2019-03-23T10:15:32.610Z,51.15
2019-03-23T10:18:06.593Z,50.72
2019-03-23T10:20:39.067Z,50.63
2019-03-23T10:23:09.612Z,45.93
2019-03-23T10:25:45.491Z,44.92
2019-03-23T10:28:15.933Z,44.37
2019-03-23T10:30:46.542Z,42.91
2019-03-23T10:33:17.421Z,43.26
2019-03-23T10:35:47.946Z,43.69
2019-03-23T10:38:18.346Z,42.87
2019-03-23T10:40:50.314Z,42.57
2019-03-23T10:43:21.308Z,42.81
2019-03-23T10:45:51.894Z,41.72
2019-03-23T10:48:22.706Z,41.72
2019-03-23T10:50:53.167Z,41.54
2019-03-23T10:53:24.037Z,41.63
2019-03-23T10:55:55.711Z,41.36
2019-03-23T10:58:26.067Z,41.60
2019-03-23T11:00:56.504Z,41.45
2019-03-23T11:03:27.580Z,41.53
2019-03-23T11:05:59.599Z,41.09
2019-03-23T11:08:30.334Z,40.95
2019-03-23T11:11:04.569Z,40.28
2019-03-23T11:13:36.552Z,40.12
2019-03-23T11:16:08.001Z,40.22
2019-03-23T11:18:38.609Z,39.36
2019-03-23T11:21:10.419Z,39.23
2019-03-23T11:23:41.035Z,39.31
2019-03-23T11:26:11.866Z,39.13
2019-03-23T11:28:42.373Z,39.07
2019-03-23T11:31:13.171Z,39.07
2019-03-23T11:33:43.968Z,39.04
2019-03-23T11:36:14.355Z,38.70
2019-03-23T11:38:45.100Z,38.09
2019-03-23T11:41:16.222Z,38.30
2019-03-23T11:43:46.838Z,38.83
2019-03-23T11:46:18.778Z,38.72
2019-03-23T11:48:49.586Z,38.75
2019-03-23T11:51:20.096Z,38.42
2019-03-23T11:53:51.646Z,38.19
2019-03-23T11:56:22.268Z,37.52
2019-03-23T11:58:54.205Z,37.44
2019-03-23T12:01:26.333Z,37.47
2019-03-23T12:03:58.627Z,37.58
2019-03-23T12:06:30.432Z,37.42
2019-03-23T12:09:02.404Z,37.18
2019-03-23T12:11:34.714Z,37.15
2019-03-23T12:14:05.383Z,37.18
2019-03-23T12:16:36.408Z,37.41
2019-03-23T12:19:07.556Z,37.48
2019-03-23T12:21:39.138Z,37.49
2019-03-23T12:24:10.617Z,36.84
2019-03-23T12:26:41.462Z,37.48
2019-03-23T12:29:13.075Z,36.63
2019-03-23T12:31:43.978Z,37.04
2019-03-23T12:34:14.860Z,36.77
2019-03-23T12:36:45.235Z,36.72
2019-03-23T12:39:15.975Z,36.82
2019-03-23T12:41:46.522Z,36.96
2019-03-23T12:44:17.056Z,36.85
2019-03-23T12:46:48.653Z,37.37
2019-03-23T12:49:19.516Z,37.48
2019-03-23T12:51:50.333Z,37.11
2019-03-23T12:54:20.857Z,36.85
2019-03-23T12:56:51.906Z,37.32
2019-03-23T12:59:22.737Z,37.44
2019-03-23T13:01:53.436Z,37.16
2019-03-23T13:04:23.865Z,37.05
2019-03-23T13:06:55.795Z,36.67
2019-03-23T13:09:27.608Z,36.40
2019-03-23T13:11:58.645Z,36.90
2019-03-23T13:14:29.213Z,36.98
2019-03-23T13:17:01.167Z,36.95
2019-03-23T13:19:32.724Z,36.56
2019-03-23T13:22:03.244Z,36.44
2019-03-23T13:24:35.328Z,36.76
2019-03-23T13:27:09.431Z,36.18
2019-03-23T13:29:43.368Z,36.18
2019-03-23T13:32:15.066Z,35.86
2019-03-23T13:34:45.637Z,35.55
2019-03-23T13:37:16.299Z,35.88
2019-03-23T13:39:47.323Z,36.32
2019-03-23T13:42:18.193Z,35.77
2019-03-23T13:45:05.355Z,35.96
2019-03-23T13:47:37.093Z,35.88
2019-03-23T13:50:09.229Z,35.64
2019-03-23T13:52:40.161Z,35.40
2019-03-23T13:55:25.339Z,35.19
2019-03-23T13:57:58.411Z,35.51
2019-03-23T14:00:29.676Z,35.12
2019-03-23T14:03:00.076Z,35.22
2019-03-23T14:05:31.213Z,35.34
2019-03-23T14:08:01.772Z,35.09
2019-03-23T14:10:32.373Z,34.12
2019-03-23T14:13:03.777Z,34.65
2019-03-23T14:15:34.667Z,35.76
2019-03-23T14:18:05.544Z,36.07
2019-03-23T14:20:37.289Z,36.51
2019-03-23T14:23:08.132Z,36.81
2019-03-23T14:25:38.962Z,36.02
2019-03-23T14:28:10.836Z,35.60
2019-03-23T14:30:41.489Z,35.88
2019-03-23T14:33:12.071Z,34.98
2019-03-23T14:35:45.573Z,34.91
2019-03-23T14:38:15.942Z,34.62
2019-03-23T14:40:46.548Z,35.55
2019-03-23T14:43:17.311Z,35.31
2019-03-23T14:45:47.879Z,35.28
2019-03-23T14:48:19.832Z,35.99
2019-03-23T14:50:50.659Z,36.42
2019-03-23T14:53:21.144Z,36.40
2019-03-23T14:55:51.637Z,36.20
2019-03-23T14:58:22.699Z,36.16
2019-03-23T15:00:53.098Z,41.61
2019-03-23T15:03:24.981Z,43.79
2019-03-23T15:05:56.971Z,44.27
2019-03-23T15:08:27.812Z,44.74
2019-03-23T15:10:58.465Z,45.00
2019-03-23T15:13:31.089Z,45.57
2019-03-23T15:16:04.787Z,45.46
2019-03-23T15:18:37.041Z,45.14
2019-03-23T15:21:07.980Z,45.46
2019-03-23T15:23:39.184Z,45.77
2019-03-23T15:26:09.862Z,46.45
2019-03-23T15:28:40.249Z,46.66
2019-03-23T15:31:10.960Z,46.67
2019-03-23T15:33:41.406Z,47.07
2019-03-23T15:36:12.717Z,46.74
2019-03-23T15:38:43.949Z,46.40
2019-03-23T15:41:15.845Z,47.21
2019-03-23T15:43:47.228Z,47.77
2019-03-23T15:46:20.975Z,48.25
2019-03-23T15:48:51.725Z,48.74
2019-03-23T15:51:22.617Z,48.90
2019-03-23T15:53:54.791Z,49.18
2019-03-23T15:56:26.871Z,49.52
2019-03-23T15:58:57.696Z,49.61
2019-03-23T16:01:28.543Z,50.17
2019-03-23T16:04:00.879Z,49.53
2019-03-23T16:06:35.124Z,50.06
2019-03-23T16:09:07.622Z,50.44
2019-03-23T16:11:38.063Z,50.88
2019-03-23T16:14:09.924Z,50.78
2019-03-23T16:16:42.197Z,50.19
2019-03-23T16:19:14.013Z,49.86
2019-03-23T16:21:45.905Z,49.95
2019-03-23T16:24:17.242Z,50.03
2019-03-23T16:26:48.866Z,51.35
2019-03-23T16:29:20.215Z,51.89
2019-03-23T16:31:50.693Z,52.58
2019-03-23T16:34:21.292Z,52.34
2019-03-23T16:36:51.737Z,52.34
2019-03-23T16:39:23.240Z,52.68
2019-03-23T16:41:54.966Z,52.85
2019-03-23T16:44:25.785Z,52.97
2019-03-23T16:46:57.959Z,52.99
2019-03-23T16:49:29.256Z,53.34
2019-03-23T16:52:00.109Z,53.73
2019-03-23T16:54:30.528Z,53.79
2019-03-23T16:57:02.526Z,53.99
2019-03-23T16:59:36.788Z,54.13
2019-03-23T17:02:11.013Z,53.94
2019-03-23T17:04:41.720Z,53.75
2019-03-23T17:07:12.481Z,54.09
2019-03-23T17:09:43.311Z,54.44
2019-03-23T17:12:14.344Z,54.56
2019-03-23T17:14:44.839Z,54.58
2019-03-23T17:17:15.284Z,54.71
2019-03-23T17:19:45.816Z,54.71
2019-03-23T17:22:17.873Z,54.91
2019-03-23T17:24:48.262Z,55.57
2019-03-23T17:27:18.779Z,55.48
2019-03-23T17:29:49.475Z,55.42
2019-03-23T17:32:20.974Z,55.57
2019-03-23T17:34:51.587Z,55.70
2019-03-23T17:37:22.900Z,55.94
2019-03-23T17:39:53.377Z,56.08
2019-03-23T17:42:24.120Z,56.22
2019-03-23T17:44:57.356Z,56.27
2019-03-23T17:47:30.213Z,56.56
2019-03-23T17:50:01.127Z,56.82
2019-03-23T17:52:41.402Z,56.78
2019-03-23T17:55:14.334Z,56.80
2019-03-23T17:57:44.868Z,57.04
2019-03-23T18:00:15.456Z,57.12
2019-03-23T18:02:46.464Z,57.09
2019-03-23T18:05:24.225Z,57.17
2019-03-23T18:07:57.644Z,57.20
2019-03-23T18:10:29.407Z,57.40
2019-03-23T18:13:00.803Z,57.48
2019-03-23T18:15:31.517Z,57.74
2019-03-23T18:18:03.426Z,57.76
2019-03-23T18:20:34.728Z,57.70
2019-03-23T18:23:10.871Z,57.45
2019-03-23T18:25:41.917Z,57.48
2019-03-23T18:28:12.500Z,57.55
2019-03-23T18:30:44.706Z,57.49
2019-03-23T18:33:16.375Z,57.54
2019-03-23T18:35:47.040Z,57.50
2019-03-23T18:38:18.603Z,57.55
2019-03-23T18:40:49.226Z,57.63
2019-03-23T18:43:27.424Z,57.76
2019-03-23T18:45:54.698Z,57.84
2019-03-23T18:48:26.300Z,57.77
2019-03-23T18:50:57.130Z,57.98
2019-03-23T18:53:29.392Z,58.09
2019-03-23T18:55:59.873Z,58.18
2019-03-23T18:58:30.749Z,58.27
2019-03-23T19:01:04.831Z,58.02
2019-03-23T19:03:40.321Z,58.28
2019-03-23T19:06:16.459Z,58.30
2019-03-23T19:08:48.350Z,58.40
2019-03-23T19:11:19.038Z,58.70
2019-03-23T19:13:49.618Z,58.84
2019-03-23T19:16:21.513Z,58.93
2019-03-23T19:18:56.575Z,59.23
2019-03-23T19:21:28.968Z,59.27
2019-03-23T19:24:02.274Z,59.39
2019-03-23T19:26:35.111Z,59.32
2019-03-23T19:29:07.198Z,59.37
2019-03-23T19:31:39.409Z,59.47
2019-03-23T19:34:11.037Z,59.53
2019-03-23T19:36:41.503Z,59.53
2019-03-23T19:39:13.087Z,59.49
2019-03-23T19:41:43.824Z,59.60
2019-03-23T19:44:14.629Z,59.57
2019-03-23T19:46:45.127Z,59.68
2019-03-23T19:49:18.142Z,59.82
2019-03-23T19:51:49.263Z,59.90
2019-03-23T19:54:20.968Z,60.31
2019-03-23T19:56:53.664Z,60.49
2019-03-23T19:59:25.414Z,60.68
2019-03-23T20:01:56.142Z,61.01
2019-03-23T20:04:27.613Z,61.30
2019-03-23T20:07:01.354Z,61.60
2019-03-23T20:09:33.919Z,62.13
2019-03-23T20:12:04.880Z,62.64
2019-03-23T20:14:36.593Z,63.08
2019-03-23T20:17:07.246Z,63.45
2019-03-23T20:19:38.065Z,63.88
2019-03-23T20:22:08.811Z,64.32
2019-03-23T20:24:39.503Z,64.67
2019-03-23T20:27:11.373Z,64.92
2019-03-23T20:29:41.847Z,65.28
2019-03-23T20:32:12.627Z,65.64
2019-03-23T20:34:42.989Z,65.86
2019-03-23T20:37:13.533Z,66.12
2019-03-23T20:39:44.211Z,66.55
2019-03-23T20:42:15.828Z,66.80
2019-03-23T20:44:46.276Z,66.84
2019-03-23T20:47:16.910Z,67.08
2019-03-23T20:49:47.574Z,67.12
2019-03-23T20:52:18.188Z,67.08
2019-03-23T20:54:48.833Z,67.09
2019-03-23T20:57:23.941Z,67.08
2019-03-23T20:59:51.878Z,67.31
2019-03-23T21:02:22.316Z,67.46
2019-03-23T21:04:52.822Z,67.29
2019-03-23T21:07:24.587Z,67.18
2019-03-23T21:09:55.527Z,67.10
2019-03-23T21:12:27.356Z,67.01
2019-03-23T21:14:59.241Z,66.94
2019-03-23T21:17:31.108Z,66.91
2019-03-23T21:20:01.592Z,66.83
2019-03-23T21:22:33.170Z,66.77
2019-03-23T21:25:03.759Z,66.68
2019-03-23T21:27:34.133Z,66.62
2019-03-23T21:30:05.252Z,66.71
2019-03-23T21:32:35.861Z,67.01
2019-03-23T21:35:06.840Z,66.94
2019-03-23T21:37:37.351Z,67.08
2019-03-23T21:40:08.714Z,67.26
2019-03-23T21:42:40.558Z,67.34
2019-03-23T21:45:12.354Z,67.33
2019-03-23T21:47:42.851Z,67.34
2019-03-23T21:50:13.543Z,67.29
2019-03-23T21:52:44.051Z,67.23
2019-03-23T21:55:16.547Z,67.16
2019-03-23T21:57:47.386Z,66.99
2019-03-23T22:00:33.288Z,66.82
2019-03-23T22:03:04.807Z,66.59
2019-03-23T22:05:35.167Z,66.37
2019-03-23T22:08:07.077Z,66.08
2019-03-23T22:10:38.849Z,65.69
2019-03-23T22:13:09.409Z,65.51
2019-03-23T22:15:39.879Z,65.23
2019-03-23T22:18:11.168Z,64.89
2019-03-23T22:20:41.637Z,64.64
2019-03-23T22:23:12.409Z,64.28
2019-03-23T22:25:42.954Z,63.85
2019-03-23T22:28:13.309Z,63.69
2019-03-23T22:30:44.006Z,63.61
2019-03-23T22:33:14.447Z,63.49
2019-03-23T22:35:44.800Z,63.29
2019-03-23T22:38:16.554Z,63.23
2019-03-23T22:40:47.306Z,63.08
2019-03-23T22:43:17.664Z,63.04
2019-03-23T22:45:48.068Z,63.02
2019-03-23T22:48:19.567Z,62.99
2019-03-23T22:50:50.018Z,62.83
2019-03-23T22:53:20.368Z,62.75
2019-03-23T22:55:51.158Z,62.81
2019-03-23T22:58:21.743Z,62.80
2019-03-23T23:00:53.049Z,62.83
2019-03-23T23:03:25.242Z,62.84
2019-03-23T23:05:56.578Z,62.78
2019-03-23T23:08:27.284Z,62.77
2019-03-23T23:10:59.309Z,62.67
2019-03-23T23:13:29.682Z,62.63
2019-03-23T23:16:02.186Z,62.76
2019-03-23T23:18:32.911Z,62.85
2019-03-23T23:21:03.241Z,62.83
2019-03-23T23:23:34.123Z,62.71
2019-03-23T23:26:04.604Z,62.60
2019-03-23T23:28:35.044Z,62.59
2019-03-23T23:31:07.123Z,62.52
2019-03-23T23:33:37.841Z,62.43
2019-03-23T23:36:08.356Z,62.47
2019-03-23T23:38:38.931Z,62.51
2019-03-23T23:41:09.452Z,62.42
2019-03-23T23:43:39.948Z,62.38
2019-03-23T23:46:10.835Z,62.46
2019-03-23T23:48:50.922Z,62.62
2019-03-23T23:51:13.695Z,62.65
2019-03-23T23:53:44.093Z,62.62
2019-03-23T23:56:14.473Z,62.56
2019-03-23T23:58:44.840Z,62.51
